sensor_id;sensor_type;location;lat;lon;timestamp;temperature;humidity
28520;DHT22;15732;48.534;20.382;2023-02-15T00:02:05;1.40;99.90
28520;DHT22;15732;48.534;20.382;2023-02-15T00:04:33;1.50;99.90
28520;DHT22;15732;48.534;20.382;2023-02-15T00:07:14;1.40;99.90
28520;DHT22;15732;48.534;20.382;2023-02-15T00:09:41;1.40;99.90
28520;DHT22;15732;48.534;20.382;2023-02-15T00:12:09;1.40;99.90
28520;DHT22;15732;48.534;20.382;2023-02-15T00:14:36;1.40;99.90
28520;DHT22;15732;48.534;20.382;2023-02-15T00:17:04;1.40;99.90
28520;DHT22;15732;48.534;20.382;2023-02-15T00:19:31;1.40;99.90
28520;DHT22;15732;48.534;20.382;2023-02-15T00:21:59;1.40;99.90
28520;DHT22;15732;48.534;20.382;2023-02-15T00:24:26;1.30;99.90
28520;DHT22;15732;48.534;20.382;2023-02-15T00:26:57;1.30;99.90
28520;DHT22;15732;48.534;20.382;2023-02-15T00:29:25;1.30;99.90
28520;DHT22;15732;48.534;20.382;2023-02-15T00:31:52;1.40;99.90
28520;DHT22;15732;48.534;20.382;2023-02-15T00:34:26;1.40;99.90
28520;DHT22;15732;48.534;20.382;2023-02-15T00:36:53;1.40;99.90
28520;DHT22;15732;48.534;20.382;2023-02-15T00:39:20;1.30;99.90
28520;DHT22;15732;48.534;20.382;2023-02-15T00:41:48;1.30;99.90
28520;DHT22;15732;48.534;20.382;2023-02-15T00:44:20;1.30;99.90
28520;DHT22;15732;48.534;20.382;2023-02-15T00:46:51;1.30;99.90
28520;DHT22;15732;48.534;20.382;2023-02-15T00:49:18;1.30;99.90
28520;DHT22;15732;48.534;20.382;2023-02-15T00:51:45;1.30;99.90
28520;DHT22;15732;48.534;20.382;2023-02-15T00:54:16;1.30;99.90
28520;DHT22;15732;48.534;20.382;2023-02-15T00:56:44;1.00;99.90
28520;DHT22;15732;48.534;20.382;2023-02-15T00:59:12;0.90;99.90
28520;DHT22;15732;48.534;20.382;2023-02-15T01:01:39;0.70;99.90
28520;DHT22;15732;48.534;20.382;2023-02-15T01:04:07;0.60;99.90
28520;DHT22;15732;48.534;20.382;2023-02-15T01:06:34;0.60;99.90
28520;DHT22;15732;48.534;20.382;2023-02-15T01:09:01;0.40;99.90
28520;DHT22;15732;48.534;20.382;2023-02-15T01:11:28;0.40;99.90
28520;DHT22;15732;48.534;20.382;2023-02-15T01:13:57;0.30;99.90
28520;DHT22;15732;48.534;20.382;2023-02-15T01:16:29;0.30;99.90
28520;DHT22;15732;48.534;20.382;2023-02-15T01:18:56;0.20;99.90
28520;DHT22;15732;48.534;20.382;2023-02-15T01:21:25;0.20;99.90
28520;DHT22;15732;48.534;20.382;2023-02-15T01:23:56;0.20;99.90
28520;DHT22;15732;48.534;20.382;2023-02-15T01:26:25;0.40;99.90
28520;DHT22;15732;48.534;20.382;2023-02-15T01:28:52;0.40;99.90
28520;DHT22;15732;48.534;20.382;2023-02-15T01:31:21;0.50;99.90
28520;DHT22;15732;48.534;20.382;2023-02-15T01:33:48;0.60;99.90
28520;DHT22;15732;48.534;20.382;2023-02-15T01:36:16;0.60;99.90
28520;DHT22;15732;48.534;20.382;2023-02-15T01:38:44;0.70;99.90
28520;DHT22;15732;48.534;20.382;2023-02-15T01:41:11;0.70;99.90
28520;DHT22;15732;48.534;20.382;2023-02-15T01:43:52;0.70;99.90
28520;DHT22;15732;48.534;20.382;2023-02-15T01:46:23;0.70;99.90
28520;DHT22;15732;48.534;20.382;2023-02-15T01:48:55;0.70;99.90
28520;DHT22;15732;48.534;20.382;2023-02-15T01:51:27;0.70;99.90
28520;DHT22;15732;48.534;20.382;2023-02-15T01:54:24;0.60;99.90
28520;DHT22;15732;48.534;20.382;2023-02-15T01:56:58;0.50;99.90
28520;DHT22;15732;48.534;20.382;2023-02-15T01:59:31;0.40;99.90
28520;DHT22;15732;48.534;20.382;2023-02-15T02:01:59;0.20;99.90
28520;DHT22;15732;48.534;20.382;2023-02-15T02:04:48;0.30;99.90
28520;DHT22;15732;48.534;20.382;2023-02-15T02:07:18;0.40;99.90
28520;DHT22;15732;48.534;20.382;2023-02-15T02:09:46;0.50;99.90
28520;DHT22;15732;48.534;20.382;2023-02-15T02:12:17;0.60;99.90
28520;DHT22;15732;48.534;20.382;2023-02-15T02:14:45;0.50;99.90
28520;DHT22;15732;48.534;20.382;2023-02-15T02:17:26;0.50;99.90
28520;DHT22;15732;48.534;20.382;2023-02-15T02:25:03;0.30;99.90
28520;DHT22;15732;48.534;20.382;2023-02-15T02:27:42;0.20;99.90
28520;DHT22;15732;48.534;20.382;2023-02-15T02:36:31;0.00;99.90
28520;DHT22;15732;48.534;20.382;2023-02-15T02:42:04;-0.20;99.90
28520;DHT22;15732;48.534;20.382;2023-02-15T02:44:42;-0.10;99.90
28520;DHT22;15732;48.534;20.382;2023-02-15T02:49:41;0.10;99.90
28520;DHT22;15732;48.534;20.382;2023-02-15T02:52:38;0.00;99.90
28520;DHT22;15732;48.534;20.382;2023-02-15T02:55:11;0.00;99.90
28520;DHT22;15732;48.534;20.382;2023-02-15T02:57:46;-0.10;99.90
28520;DHT22;15732;48.534;20.382;2023-02-15T03:00:15;-0.20;99.90
28520;DHT22;15732;48.534;20.382;2023-02-15T03:02:46;-0.30;99.90
28520;DHT22;15732;48.534;20.382;2023-02-15T03:05:17;-0.30;99.90
28520;DHT22;15732;48.534;20.382;2023-02-15T03:07:52;-0.30;99.90
28520;DHT22;15732;48.534;20.382;2023-02-15T03:10:22;-0.40;99.90
28520;DHT22;15732;48.534;20.382;2023-02-15T03:12:50;-0.40;99.90
28520;DHT22;15732;48.534;20.382;2023-02-15T03:15:23;-0.40;99.90
28520;DHT22;15732;48.534;20.382;2023-02-15T03:18:00;-0.50;99.90
28520;DHT22;15732;48.534;20.382;2023-02-15T03:20:32;-0.40;99.90
28520;DHT22;15732;48.534;20.382;2023-02-15T03:23:04;-0.40;99.90
28520;DHT22;15732;48.534;20.382;2023-02-15T03:28:04;-0.10;99.90
28520;DHT22;15732;48.534;20.382;2023-02-15T03:30:36;-0.10;99.90
28520;DHT22;15732;48.534;20.382;2023-02-15T03:33:05;0.00;99.90
28520;DHT22;15732;48.534;20.382;2023-02-15T03:35:53;0.00;99.90
28520;DHT22;15732;48.534;20.382;2023-02-15T03:39:10;-0.10;99.90
28520;DHT22;15732;48.534;20.382;2023-02-15T03:41:19;-0.30;99.90
28520;DHT22;15732;48.534;20.382;2023-02-15T03:43:59;-0.50;99.90
28520;DHT22;15732;48.534;20.382;2023-02-15T03:49:13;-0.40;99.90
28520;DHT22;15732;48.534;20.382;2023-02-15T03:51:46;-0.60;99.90
28520;DHT22;15732;48.534;20.382;2023-02-15T03:54:18;-0.70;99.90
28520;DHT22;15732;48.534;20.382;2023-02-15T03:57:06;-0.70;99.90
28520;DHT22;15732;48.534;20.382;2023-02-15T03:59:52;-0.60;99.90
28520;DHT22;15732;48.534;20.382;2023-02-15T04:05:14;-0.60;99.90
28520;DHT22;15732;48.534;20.382;2023-02-15T04:07:42;-0.60;99.90
28520;DHT22;15732;48.534;20.382;2023-02-15T04:10:10;-0.80;99.90
28520;DHT22;15732;48.534;20.382;2023-02-15T04:12:56;-0.90;99.90
28520;DHT22;15732;48.534;20.382;2023-02-15T04:15:23;-1.00;99.90
28520;DHT22;15732;48.534;20.382;2023-02-15T04:18:08;-1.10;99.90
28520;DHT22;15732;48.534;20.382;2023-02-15T04:20:40;-1.10;99.90
28520;DHT22;15732;48.534;20.382;2023-02-15T04:23:28;-1.10;99.90
28520;DHT22;15732;48.534;20.382;2023-02-15T04:26:13;-1.00;99.90
28520;DHT22;15732;48.534;20.382;2023-02-15T04:28:39;-0.90;99.90
28520;DHT22;15732;48.534;20.382;2023-02-15T04:31:07;-0.80;99.90
28520;DHT22;15732;48.534;20.382;2023-02-15T04:33:34;-0.70;99.90
28520;DHT22;15732;48.534;20.382;2023-02-15T04:36:03;-0.70;99.90
28520;DHT22;15732;48.534;20.382;2023-02-15T04:38:31;-0.80;99.90
28520;DHT22;15732;48.534;20.382;2023-02-15T04:40:58;-0.90;99.90
28520;DHT22;15732;48.534;20.382;2023-02-15T04:43:25;-0.90;99.90
28520;DHT22;15732;48.534;20.382;2023-02-15T04:45:53;-0.90;99.90
28520;DHT22;15732;48.534;20.382;2023-02-15T04:48:20;-0.90;99.90
28520;DHT22;15732;48.534;20.382;2023-02-15T04:50:51;-0.80;99.90
28520;DHT22;15732;48.534;20.382;2023-02-15T04:53:19;-0.90;99.90
28520;DHT22;15732;48.534;20.382;2023-02-15T04:55:46;-0.90;99.90
28520;DHT22;15732;48.534;20.382;2023-02-15T04:58:13;-1.00;99.90
28520;DHT22;15732;48.534;20.382;2023-02-15T05:00:40;-1.00;99.90
28520;DHT22;15732;48.534;20.382;2023-02-15T05:03:08;-0.90;99.90
28520;DHT22;15732;48.534;20.382;2023-02-15T05:05:36;-0.90;99.90
28520;DHT22;15732;48.534;20.382;2023-02-15T05:08:04;-0.90;99.90
28520;DHT22;15732;48.534;20.382;2023-02-15T05:10:31;-0.90;99.90
28520;DHT22;15732;48.534;20.382;2023-02-15T05:12:59;-1.00;99.90
28520;DHT22;15732;48.534;20.382;2023-02-15T05:15:26;-1.10;99.90
28520;DHT22;15732;48.534;20.382;2023-02-15T05:17:57;-1.10;99.90
28520;DHT22;15732;48.534;20.382;2023-02-15T05:20:25;-1.10;99.90
28520;DHT22;15732;48.534;20.382;2023-02-15T05:22:55;-0.90;99.90
28520;DHT22;15732;48.534;20.382;2023-02-15T05:25:23;-0.80;99.90
28520;DHT22;15732;48.534;20.382;2023-02-15T05:28:10;-0.80;99.90
28520;DHT22;15732;48.534;20.382;2023-02-15T05:31:12;-0.80;99.90
28520;DHT22;15732;48.534;20.382;2023-02-15T05:33:40;-1.00;99.90
28520;DHT22;15732;48.534;20.382;2023-02-15T05:36:07;-1.00;99.90
28520;DHT22;15732;48.534;20.382;2023-02-15T05:38:35;-1.10;99.90
28520;DHT22;15732;48.534;20.382;2023-02-15T05:41:04;-1.10;99.90
28520;DHT22;15732;48.534;20.382;2023-02-15T05:43:32;-1.00;99.90
28520;DHT22;15732;48.534;20.382;2023-02-15T05:45:59;-1.00;99.90
28520;DHT22;15732;48.534;20.382;2023-02-15T05:48:27;-1.00;99.90
28520;DHT22;15732;48.534;20.382;2023-02-15T05:51:12;-0.90;99.90
28520;DHT22;15732;48.534;20.382;2023-02-15T05:53:41;-0.90;99.90
28520;DHT22;15732;48.534;20.382;2023-02-15T05:56:09;-0.90;99.90
28520;DHT22;15732;48.534;20.382;2023-02-15T05:58:39;-0.80;99.90
28520;DHT22;15732;48.534;20.382;2023-02-15T06:01:13;-0.80;99.90
28520;DHT22;15732;48.534;20.382;2023-02-15T06:03:40;-0.80;99.90
28520;DHT22;15732;48.534;20.382;2023-02-15T06:06:07;-0.70;99.90
28520;DHT22;15732;48.534;20.382;2023-02-15T06:08:36;-0.70;99.90
28520;DHT22;15732;48.534;20.382;2023-02-15T06:11:04;-0.70;99.90
28520;DHT22;15732;48.534;20.382;2023-02-15T06:13:32;-0.70;99.90
28520;DHT22;15732;48.534;20.382;2023-02-15T06:15:59;-0.80;99.90
28520;DHT22;15732;48.534;20.382;2023-02-15T06:18:26;-0.80;99.90
28520;DHT22;15732;48.534;20.382;2023-02-15T06:20:54;-0.70;99.90
28520;DHT22;15732;48.534;20.382;2023-02-15T06:23:21;-0.70;99.90
28520;DHT22;15732;48.534;20.382;2023-02-15T06:25:49;-0.60;99.90
28520;DHT22;15732;48.534;20.382;2023-02-15T06:28:16;-0.60;99.90
28520;DHT22;15732;48.534;20.382;2023-02-15T06:30:43;-0.50;99.90
28520;DHT22;15732;48.534;20.382;2023-02-15T06:33:11;-0.50;99.90
28520;DHT22;15732;48.534;20.382;2023-02-15T06:35:38;-0.50;99.90
28520;DHT22;15732;48.534;20.382;2023-02-15T06:38:06;-0.40;99.90
28520;DHT22;15732;48.534;20.382;2023-02-15T06:40:33;-0.40;99.90
28520;DHT22;15732;48.534;20.382;2023-02-15T06:43:01;-0.40;99.90
28520;DHT22;15732;48.534;20.382;2023-02-15T06:45:32;-0.30;99.90
28520;DHT22;15732;48.534;20.382;2023-02-15T06:47:59;-0.30;99.90
28520;DHT22;15732;48.534;20.382;2023-02-15T06:50:26;-0.20;99.90
28520;DHT22;15732;48.534;20.382;2023-02-15T06:52:59;-0.20;99.90
28520;DHT22;15732;48.534;20.382;2023-02-15T06:55:27;-0.30;99.90
28520;DHT22;15732;48.534;20.382;2023-02-15T06:57:54;-0.30;99.90
28520;DHT22;15732;48.534;20.382;2023-02-15T07:00:22;-0.40;99.90
28520;DHT22;15732;48.534;20.382;2023-02-15T07:03:15;-0.50;99.90
28520;DHT22;15732;48.534;20.382;2023-02-15T07:05:43;-0.60;99.90
28520;DHT22;15732;48.534;20.382;2023-02-15T07:08:11;-0.70;99.90
28520;DHT22;15732;48.534;20.382;2023-02-15T07:10:38;-0.80;99.90
28520;DHT22;15732;48.534;20.382;2023-02-15T07:13:06;-0.80;99.90
28520;DHT22;15732;48.534;20.382;2023-02-15T07:15:33;-0.70;99.90
28520;DHT22;15732;48.534;20.382;2023-02-15T07:18:01;-0.70;99.90
28520;DHT22;15732;48.534;20.382;2023-02-15T07:20:32;-0.80;99.90
28520;DHT22;15732;48.534;20.382;2023-02-15T07:23:03;-0.70;99.90
28520;DHT22;15732;48.534;20.382;2023-02-15T07:25:34;-0.70;99.90
28520;DHT22;15732;48.534;20.382;2023-02-15T07:28:04;-0.60;99.90
28520;DHT22;15732;48.534;20.382;2023-02-15T07:30:30;-0.70;99.90
28520;DHT22;15732;48.534;20.382;2023-02-15T07:32:57;-0.60;99.90
28520;DHT22;15732;48.534;20.382;2023-02-15T07:35:47;-0.50;99.90
28520;DHT22;15732;48.534;20.382;2023-02-15T07:38:15;-0.50;99.90
28520;DHT22;15732;48.534;20.382;2023-02-15T07:40:42;-0.50;99.90
28520;DHT22;15732;48.534;20.382;2023-02-15T07:43:09;-0.30;99.90
28520;DHT22;15732;48.534;20.382;2023-02-15T07:45:36;-0.20;99.90
28520;DHT22;15732;48.534;20.382;2023-02-15T07:48:04;-0.10;99.90
28520;DHT22;15732;48.534;20.382;2023-02-15T07:50:32;-0.10;99.90
28520;DHT22;15732;48.534;20.382;2023-02-15T07:53:00;0.00;99.90
28520;DHT22;15732;48.534;20.382;2023-02-15T07:55:27;0.10;99.90
28520;DHT22;15732;48.534;20.382;2023-02-15T07:57:55;0.20;99.90
28520;DHT22;15732;48.534;20.382;2023-02-15T08:00:23;0.30;99.90
28520;DHT22;15732;48.534;20.382;2023-02-15T08:02:51;0.40;99.90
28520;DHT22;15732;48.534;20.382;2023-02-15T08:05:38;0.50;99.90
28520;DHT22;15732;48.534;20.382;2023-02-15T08:08:08;0.50;99.90
28520;DHT22;15732;48.534;20.382;2023-02-15T08:10:38;0.60;99.90
28520;DHT22;15732;48.534;20.382;2023-02-15T08:13:23;0.70;99.90
28520;DHT22;15732;48.534;20.382;2023-02-15T08:15:51;0.90;99.90
28520;DHT22;15732;48.534;20.382;2023-02-15T08:18:18;1.00;99.90
28520;DHT22;15732;48.534;20.382;2023-02-15T08:20:51;1.10;99.90
28520;DHT22;15732;48.534;20.382;2023-02-15T08:23:19;1.20;99.90
28520;DHT22;15732;48.534;20.382;2023-02-15T08:25:50;1.30;99.90
28520;DHT22;15732;48.534;20.382;2023-02-15T08:28:18;1.40;99.90
28520;DHT22;15732;48.534;20.382;2023-02-15T08:30:45;1.50;99.90
28520;DHT22;15732;48.534;20.382;2023-02-15T08:33:12;1.60;99.90
28520;DHT22;15732;48.534;20.382;2023-02-15T08:35:40;1.70;99.90
28520;DHT22;15732;48.534;20.382;2023-02-15T08:38:07;1.80;99.90
28520;DHT22;15732;48.534;20.382;2023-02-15T08:40:35;1.90;99.90
28520;DHT22;15732;48.534;20.382;2023-02-15T08:43:04;2.10;99.90
28520;DHT22;15732;48.534;20.382;2023-02-15T08:45:33;2.20;99.90
28520;DHT22;15732;48.534;20.382;2023-02-15T08:48:01;2.30;99.90
28520;DHT22;15732;48.534;20.382;2023-02-15T08:50:28;2.50;99.90
28520;DHT22;15732;48.534;20.382;2023-02-15T08:52:56;2.70;99.90
28520;DHT22;15732;48.534;20.382;2023-02-15T08:55:23;2.90;99.90
28520;DHT22;15732;48.534;20.382;2023-02-15T08:57:51;3.00;99.90
28520;DHT22;15732;48.534;20.382;2023-02-15T09:00:21;3.10;99.90
28520;DHT22;15732;48.534;20.382;2023-02-15T09:02:49;3.30;99.90
28520;DHT22;15732;48.534;20.382;2023-02-15T09:05:17;3.50;99.90
28520;DHT22;15732;48.534;20.382;2023-02-15T09:07:48;3.70;99.90
28520;DHT22;15732;48.534;20.382;2023-02-15T09:10:16;3.90;99.90
28520;DHT22;15732;48.534;20.382;2023-02-15T09:12:43;4.10;99.90
28520;DHT22;15732;48.534;20.382;2023-02-15T09:15:10;4.20;99.90
28520;DHT22;15732;48.534;20.382;2023-02-15T09:17:38;4.40;99.90
28520;DHT22;15732;48.534;20.382;2023-02-15T09:20:07;4.50;99.90
28520;DHT22;15732;48.534;20.382;2023-02-15T09:22:35;4.50;99.90
28520;DHT22;15732;48.534;20.382;2023-02-15T09:25:07;4.60;99.90
28520;DHT22;15732;48.534;20.382;2023-02-15T09:27:38;4.70;99.90
28520;DHT22;15732;48.534;20.382;2023-02-15T09:30:08;4.70;99.90
28520;DHT22;15732;48.534;20.382;2023-02-15T09:32:36;4.80;99.90
28520;DHT22;15732;48.534;20.382;2023-02-15T09:35:03;4.80;99.90
28520;DHT22;15732;48.534;20.382;2023-02-15T09:37:31;4.90;99.90
28520;DHT22;15732;48.534;20.382;2023-02-15T09:39:59;4.90;99.90
28520;DHT22;15732;48.534;20.382;2023-02-15T09:48:42;5.20;99.90
28520;DHT22;15732;48.534;20.382;2023-02-15T09:51:37;5.20;99.90
28520;DHT22;15732;48.534;20.382;2023-02-15T09:54:43;5.30;99.90
28520;DHT22;15732;48.534;20.382;2023-02-15T10:00:25;5.50;99.90
28520;DHT22;15732;48.534;20.382;2023-02-15T10:16:41;5.90;99.90
28520;DHT22;15732;48.534;20.382;2023-02-15T10:19:43;5.90;99.90
28520;DHT22;15732;48.534;20.382;2023-02-15T10:28:04;6.00;99.90
28520;DHT22;15732;48.534;20.382;2023-02-15T10:42:15;6.50;99.90
28520;DHT22;15732;48.534;20.382;2023-02-15T10:47:29;6.60;99.90
28520;DHT22;15732;48.534;20.382;2023-02-15T10:50:13;6.70;99.90
28520;DHT22;15732;48.534;20.382;2023-02-15T10:58:38;6.90;99.90
28520;DHT22;15732;48.534;20.382;2023-02-15T11:06:23;7.00;99.90
28520;DHT22;15732;48.534;20.382;2023-02-15T11:08:59;7.00;99.90
28520;DHT22;15732;48.534;20.382;2023-02-15T11:11:36;7.10;99.90
28520;DHT22;15732;48.534;20.382;2023-02-15T11:16:46;7.10;99.90
28520;DHT22;15732;48.534;20.382;2023-02-15T11:19:30;7.20;99.90
28520;DHT22;15732;48.534;20.382;2023-02-15T11:22:02;7.10;99.90
28520;DHT22;15732;48.534;20.382;2023-02-15T11:24:31;7.20;99.90
28520;DHT22;15732;48.534;20.382;2023-02-15T11:32:23;7.30;99.90
28520;DHT22;15732;48.534;20.382;2023-02-15T11:37:50;7.30;99.90
28520;DHT22;15732;48.534;20.382;2023-02-15T11:40:44;7.30;99.90
28520;DHT22;15732;48.534;20.382;2023-02-15T11:43:17;7.40;99.90
28520;DHT22;15732;48.534;20.382;2023-02-15T11:45:47;7.40;99.90
28520;DHT22;15732;48.534;20.382;2023-02-15T11:48:15;7.40;99.90
28520;DHT22;15732;48.534;20.382;2023-02-15T11:50:42;7.40;99.90
28520;DHT22;15732;48.534;20.382;2023-02-15T11:53:16;7.40;99.90
28520;DHT22;15732;48.534;20.382;2023-02-15T11:55:51;7.40;99.90
28520;DHT22;15732;48.534;20.382;2023-02-15T12:03:53;7.20;99.90
28520;DHT22;15732;48.534;20.382;2023-02-15T12:06:29;7.20;99.90
28520;DHT22;15732;48.534;20.382;2023-02-15T12:11:46;7.20;99.90
28520;DHT22;15732;48.534;20.382;2023-02-15T12:14:14;7.10;99.90
28520;DHT22;15732;48.534;20.382;2023-02-15T12:16:52;7.10;99.90
28520;DHT22;15732;48.534;20.382;2023-02-15T12:19:39;7.10;99.90
28520;DHT22;15732;48.534;20.382;2023-02-15T12:22:20;7.20;99.90
28520;DHT22;15732;48.534;20.382;2023-02-15T12:24:52;7.10;99.90
28520;DHT22;15732;48.534;20.382;2023-02-15T12:27:44;7.20;99.90
28520;DHT22;15732;48.534;20.382;2023-02-15T12:30:31;7.10;99.90
28520;DHT22;15732;48.534;20.382;2023-02-15T12:33:53;7.20;99.90
28520;DHT22;15732;48.534;20.382;2023-02-15T12:36:21;7.20;99.90
28520;DHT22;15732;48.534;20.382;2023-02-15T12:39:25;7.20;99.90
28520;DHT22;15732;48.534;20.382;2023-02-15T12:44:28;7.30;99.90
28520;DHT22;15732;48.534;20.382;2023-02-15T12:46:56;7.30;99.90
28520;DHT22;15732;48.534;20.382;2023-02-15T12:49:24;7.40;99.90
28520;DHT22;15732;48.534;20.382;2023-02-15T12:54:45;7.40;99.90
28520;DHT22;15732;48.534;20.382;2023-02-15T12:57:31;7.50;99.90
28520;DHT22;15732;48.534;20.382;2023-02-15T13:02:46;7.50;99.90
28520;DHT22;15732;48.534;20.382;2023-02-15T13:05:36;7.50;99.90
28520;DHT22;15732;48.534;20.382;2023-02-15T13:08:19;7.60;99.90
28520;DHT22;15732;48.534;20.382;2023-02-15T13:10:58;7.60;99.90
28520;DHT22;15732;48.534;20.382;2023-02-15T13:13:31;7.60;99.90
28520;DHT22;15732;48.534;20.382;2023-02-15T13:16:01;7.70;99.90
28520;DHT22;15732;48.534;20.382;2023-02-15T13:18:39;7.70;99.90
28520;DHT22;15732;48.534;20.382;2023-02-15T13:21:35;7.70;99.90
28520;DHT22;15732;48.534;20.382;2023-02-15T13:26:52;7.80;99.90
28520;DHT22;15732;48.534;20.382;2023-02-15T13:31:52;7.90;99.90
28520;DHT22;15732;48.534;20.382;2023-02-15T13:34:40;7.90;99.90
28520;DHT22;15732;48.534;20.382;2023-02-15T13:40:38;7.90;99.90
28520;DHT22;15732;48.534;20.382;2023-02-15T13:52:21;7.90;99.90
28520;DHT22;15732;48.534;20.382;2023-02-15T14:11:43;7.90;99.90
28520;DHT22;15732;48.534;20.382;2023-02-15T14:22:41;7.90;99.90
28520;DHT22;15732;48.534;20.382;2023-02-15T14:30:39;7.80;99.90
28520;DHT22;15732;48.534;20.382;2023-02-15T14:33:28;7.80;99.90
28520;DHT22;15732;48.534;20.382;2023-02-15T14:36:00;7.80;99.90
28520;DHT22;15732;48.534;20.382;2023-02-15T14:38:55;7.80;99.90
28520;DHT22;15732;48.534;20.382;2023-02-15T14:41:43;7.80;99.90
28520;DHT22;15732;48.534;20.382;2023-02-15T14:44:24;7.80;99.90
28520;DHT22;15732;48.534;20.382;2023-02-15T14:47:02;7.80;99.90
28520;DHT22;15732;48.534;20.382;2023-02-15T14:49:37;7.80;99.90
28520;DHT22;15732;48.534;20.382;2023-02-15T14:52:09;7.80;99.90
28520;DHT22;15732;48.534;20.382;2023-02-15T15:02:26;7.80;99.90
28520;DHT22;15732;48.534;20.382;2023-02-15T15:07:54;7.80;99.90
28520;DHT22;15732;48.534;20.382;2023-02-15T15:12:53;7.70;99.90
28520;DHT22;15732;48.534;20.382;2023-02-15T15:26:20;7.50;99.90
28520;DHT22;15732;48.534;20.382;2023-02-15T15:31:24;7.30;99.90
28520;DHT22;15732;48.534;20.382;2023-02-15T15:42:43;7.10;99.90
28520;DHT22;15732;48.534;20.382;2023-02-15T15:46:05;7.00;99.90
28520;DHT22;15732;48.534;20.382;2023-02-15T15:48:38;6.90;99.90
28520;DHT22;15732;48.534;20.382;2023-02-15T15:51:30;6.90;99.90
28520;DHT22;15732;48.534;20.382;2023-02-15T15:53:57;6.70;99.90
28520;DHT22;15732;48.534;20.382;2023-02-15T15:56:34;6.70;99.90
28520;DHT22;15732;48.534;20.382;2023-02-15T15:59:05;6.60;99.90
28520;DHT22;15732;48.534;20.382;2023-02-15T16:01:41;6.50;99.90
28520;DHT22;15732;48.534;20.382;2023-02-15T16:04:14;6.40;99.90
28520;DHT22;15732;48.534;20.382;2023-02-15T16:06:48;6.30;99.90
28520;DHT22;15732;48.534;20.382;2023-02-15T16:09:26;6.20;99.90
28520;DHT22;15732;48.534;20.382;2023-02-15T16:11:56;6.10;99.90
28520;DHT22;15732;48.534;20.382;2023-02-15T16:14:38;6.00;99.90
28520;DHT22;15732;48.534;20.382;2023-02-15T16:17:13;6.00;99.90
28520;DHT22;15732;48.534;20.382;2023-02-15T16:19:44;6.00;99.90
28520;DHT22;15732;48.534;20.382;2023-02-15T16:22:14;5.90;99.90
28520;DHT22;15732;48.534;20.382;2023-02-15T16:27:32;5.80;99.90
28520;DHT22;15732;48.534;20.382;2023-02-15T16:30:22;5.70;99.90
28520;DHT22;15732;48.534;20.382;2023-02-15T16:32:54;5.70;99.90
28520;DHT22;15732;48.534;20.382;2023-02-15T16:35:26;5.60;99.90
28520;DHT22;15732;48.534;20.382;2023-02-15T16:37:53;5.50;99.90
28520;DHT22;15732;48.534;20.382;2023-02-15T16:42:52;5.50;99.90
28520;DHT22;15732;48.534;20.382;2023-02-15T16:45:23;5.40;99.90
28520;DHT22;15732;48.534;20.382;2023-02-15T16:47:56;5.30;99.90
28520;DHT22;15732;48.534;20.382;2023-02-15T16:50:29;5.20;99.90
28520;DHT22;15732;48.534;20.382;2023-02-15T16:52:57;5.20;99.90
28520;DHT22;15732;48.534;20.382;2023-02-15T16:55:33;5.10;99.90
28520;DHT22;15732;48.534;20.382;2023-02-15T16:58:04;5.00;99.90
28520;DHT22;15732;48.534;20.382;2023-02-15T17:00:35;5.00;99.90
28520;DHT22;15732;48.534;20.382;2023-02-15T17:05:52;4.90;99.90
28520;DHT22;15732;48.534;20.382;2023-02-15T17:08:42;4.90;99.90
28520;DHT22;15732;48.534;20.382;2023-02-15T17:11:13;4.80;99.90
28520;DHT22;15732;48.534;20.382;2023-02-15T17:19:40;4.70;99.90
28520;DHT22;15732;48.534;20.382;2023-02-15T17:22:18;4.60;99.90
28520;DHT22;15732;48.534;20.382;2023-02-15T17:24:48;4.60;99.90
28520;DHT22;15732;48.534;20.382;2023-02-15T17:27:18;4.50;99.90
28520;DHT22;15732;48.534;20.382;2023-02-15T17:29:50;4.40;99.90
28520;DHT22;15732;48.534;20.382;2023-02-15T17:32:23;4.40;99.90
28520;DHT22;15732;48.534;20.382;2023-02-15T17:42:51;4.10;99.90
28520;DHT22;15732;48.534;20.382;2023-02-15T17:45:19;4.10;99.90
28520;DHT22;15732;48.534;20.382;2023-02-15T17:47:47;4.10;99.90
28520;DHT22;15732;48.534;20.382;2023-02-15T17:50:23;4.10;99.90
28520;DHT22;15732;48.534;20.382;2023-02-15T17:52:51;4.00;99.90
28520;DHT22;15732;48.534;20.382;2023-02-15T17:55:24;4.00;99.90
28520;DHT22;15732;48.534;20.382;2023-02-15T17:58:02;4.00;99.90
28520;DHT22;15732;48.534;20.382;2023-02-15T18:00:30;4.00;99.90
28520;DHT22;15732;48.534;20.382;2023-02-15T18:03:15;4.00;99.90
28520;DHT22;15732;48.534;20.382;2023-02-15T18:06:01;4.00;99.90
28520;DHT22;15732;48.534;20.382;2023-02-15T18:08:46;3.90;99.90
28520;DHT22;15732;48.534;20.382;2023-02-15T18:11:31;3.80;99.90
28520;DHT22;15732;48.534;20.382;2023-02-15T18:14:08;3.80;99.90
28520;DHT22;15732;48.534;20.382;2023-02-15T18:16:38;3.70;99.90
28520;DHT22;15732;48.534;20.382;2023-02-15T18:19:17;3.70;99.90
28520;DHT22;15732;48.534;20.382;2023-02-15T18:21:45;3.60;99.90
28520;DHT22;15732;48.534;20.382;2023-02-15T18:24:23;3.60;99.90
28520;DHT22;15732;48.534;20.382;2023-02-15T18:26:54;3.60;99.90
28520;DHT22;15732;48.534;20.382;2023-02-15T18:29:21;3.60;99.90
28520;DHT22;15732;48.534;20.382;2023-02-15T18:31:53;3.70;99.90
28520;DHT22;15732;48.534;20.382;2023-02-15T18:34:30;3.70;99.90
28520;DHT22;15732;48.534;20.382;2023-02-15T18:36:58;3.60;99.90
28520;DHT22;15732;48.534;20.382;2023-02-15T18:39:36;3.60;99.90
28520;DHT22;15732;48.534;20.382;2023-02-15T18:42:04;3.50;99.90
28520;DHT22;15732;48.534;20.382;2023-02-15T18:44:32;3.40;99.90
28520;DHT22;15732;48.534;20.382;2023-02-15T18:47:03;3.30;99.90
28520;DHT22;15732;48.534;20.382;2023-02-15T18:49:30;3.30;99.90
28520;DHT22;15732;48.534;20.382;2023-02-15T18:52:02;3.40;99.90
28520;DHT22;15732;48.534;20.382;2023-02-15T18:54:29;3.40;99.90
28520;DHT22;15732;48.534;20.382;2023-02-15T18:57:00;3.30;99.90
28520;DHT22;15732;48.534;20.382;2023-02-15T18:59:29;3.30;99.90
28520;DHT22;15732;48.534;20.382;2023-02-15T19:01:57;3.30;99.90
28520;DHT22;15732;48.534;20.382;2023-02-15T19:04:26;3.30;99.90
28520;DHT22;15732;48.534;20.382;2023-02-15T19:06:53;3.30;99.90
28520;DHT22;15732;48.534;20.382;2023-02-15T19:09:22;3.30;99.90
28520;DHT22;15732;48.534;20.382;2023-02-15T19:11:53;3.40;99.90
28520;DHT22;15732;48.534;20.382;2023-02-15T19:14:31;3.30;99.90
28520;DHT22;15732;48.534;20.382;2023-02-15T19:16:59;3.30;99.90
28520;DHT22;15732;48.534;20.382;2023-02-15T19:19:26;3.30;99.90
28520;DHT22;15732;48.534;20.382;2023-02-15T19:21:53;3.30;99.90
28520;DHT22;15732;48.534;20.382;2023-02-15T19:24:26;3.20;99.90
28520;DHT22;15732;48.534;20.382;2023-02-15T19:26:58;3.10;99.90
28520;DHT22;15732;48.534;20.382;2023-02-15T19:29:28;3.10;99.90
28520;DHT22;15732;48.534;20.382;2023-02-15T19:31:56;3.10;99.90
28520;DHT22;15732;48.534;20.382;2023-02-15T19:34:24;3.10;99.90